Time;durP1;ratioP1;P1;durP2;ratioP2;P2;SDS_P1;SDS_P2;PMS_P1;PMS_P2;Temp;Humidity;BMP_temperature;BMP_pressure;BME280_temperature;BME280_humidity;BME280_pressure;Samples;Min_cycle;Max_cycle;Signal;HPM_P1;HPM_P2
2021/05/10 04:50:10;;;;;;;5.72;2.88;;;;;;;;;;6251374;23;20024;-77
2021/05/10 04:52:36;;;;;;;4.15;2.40;;;;;;;;;;6250858;23;20016;-77
2021/05/10 04:55:03;;;;;;;5.53;3.17;;;;;;;;;;6250462;23;20410;-77
2021/05/10 04:57:28;;;;;;;4.85;2.70;;;;;;;;;;6250718;23;20008;-77
2021/05/10 05:12:38;;;;;;;3.28;2.30;;;;;;;;;;5168518;27;20953;-78
2021/05/10 05:15:04;;;;;;;4.18;2.72;;;;;;;;;;5175305;27;20109;-78
2021/05/10 05:17:30;;;;;;;3.53;2.53;;;;;;;;;;5158099;27;20465;-77
2021/05/10 05:19:56;;;;;;;3.90;2.70;;;;;;;;;;5160931;27;20054;-78
2021/05/10 05:22:21;;;;;;;4.47;2.50;;;;;;;;;;5152452;27;20109;-78
2021/05/10 05:24:48;;;;;;;4.28;2.90;;;;;;;;;;5156471;27;20062;-78
2021/05/10 05:27:13;;;;;;;6.43;2.55;;;;;;;;;;5155811;27;20006;-78
2021/05/10 05:29:39;;;;;;;3.10;2.13;;;;;;;;;;5157029;27;20049;-77
2021/05/10 05:32:05;;;;;;;4.53;2.53;;;;;;;;;;5160178;27;20026;-78
2021/05/10 05:34:31;;;;;;;8.40;2.63;;;;;;;;;;5149024;27;20024;-78
2021/05/10 05:36:56;;;;;;;4.40;2.63;;;;;;;;;;5151900;27;20026;-78
2021/05/10 05:39:22;;;;;;;6.28;2.30;;;;;;;;;;5160295;27;20069;-79
2021/05/10 05:41:48;;;;;;;5.25;2.00;;;;;;;;;;5157136;27;20376;-77
2021/05/10 05:44:13;;;;;;;6.97;2.58;;;;;;;;;;5150444;27;20021;-80
2021/05/10 05:46:43;;;;;;;7.07;2.20;;;;;;;;;;5143011;27;20021;-78
2021/05/10 05:49:09;;;;;;;5.63;1.85;;;;;;;;;;5149006;27;20050;-78
2021/05/10 05:51:35;;;;;;;4.00;1.65;;;;;;;;;;5148811;27;20031;-77
2021/05/10 05:54:00;;;;;;;5.63;2.00;;;;;;;;;;5150813;27;20069;-78
2021/05/10 05:56:27;;;;;;;5.60;2.00;;;;;;;;;;5151289;27;20019;-77
2021/05/10 05:58:52;;;;;;;5.95;2.13;;;;;;;;;;5144533;27;20537;-78
2021/05/10 06:01:18;;;;;;;5.57;2.50;;;;;;;;;;5153289;27;20027;-77
2021/05/10 06:03:44;;;;;;;8.23;2.30;;;;;;;;;;5146297;27;20051;-77
2021/05/10 06:06:10;;;;;;;5.85;1.90;;;;;;;;;;5158836;27;20058;-78
2021/05/10 06:08:36;;;;;;;5.85;1.75;;;;;;;;;;5147195;27;20011;-78
2021/05/10 06:11:03;;;;;;;6.28;2.17;;;;;;;;;;5154558;27;20061;-78
2021/05/10 06:13:29;;;;;;;6.50;2.60;;;;;;;;;;5135027;27;20035;-78
2021/05/10 06:15:55;;;;;;;5.85;2.65;;;;;;;;;;5129624;27;20027;-78
2021/05/10 06:18:20;;;;;;;4.63;3.03;;;;;;;;;;5132060;27;20480;-78
2021/05/10 06:20:46;;;;;;;4.57;3.10;;;;;;;;;;5139371;27;20015;-78
2021/05/10 06:23:12;;;;;;;5.38;2.00;;;;;;;;;;5125793;27;20031;-77
2021/05/10 06:25:37;;;;;;;5.63;1.70;;;;;;;;;;5125189;27;20025;-79
2021/05/10 06:28:03;;;;;;;6.53;1.92;;;;;;;;;;5130988;27;20030;-79
2021/05/10 06:30:29;;;;;;;4.80;1.70;;;;;;;;;;5132355;27;20023;-79
2021/05/10 06:32:54;;;;;;;6.25;2.03;;;;;;;;;;5125097;27;20027;-78
2021/05/10 06:35:20;;;;;;;6.53;1.95;;;;;;;;;;5131631;27;20106;-78
2021/05/10 06:37:46;;;;;;;4.93;1.80;;;;;;;;;;5130186;27;20030;-78
2021/05/10 06:40:12;;;;;;;4.50;2.05;;;;;;;;;;5125800;27;20037;-78
2021/05/10 06:42:38;;;;;;;5.68;1.77;;;;;;;;;;5128530;27;20031;-78
2021/05/10 06:45:08;;;;;;;3.55;1.70;;;;;;;;;;5135460;27;20135;-77
2021/05/10 06:47:34;;;;;;;2.95;1.40;;;;;;;;;;5132210;27;20015;-78
2021/05/10 06:49:59;;;;;;;3.72;1.85;;;;;;;;;;5139045;27;20505;-78
2021/05/10 06:52:25;;;;;;;6.32;2.13;;;;;;;;;;5146878;27;20029;-77
2021/05/10 06:54:51;;;;;;;4.95;1.80;;;;;;;;;;5130865;27;20054;-78
2021/05/10 06:57:17;;;;;;;6.00;2.45;;;;;;;;;;5140472;27;20027;-78
2021/05/10 06:59:43;;;;;;;6.35;2.97;;;;;;;;;;5144763;27;20387;-78
2021/05/10 07:02:09;;;;;;;16.40;9.20;;;;;;;;;;5142282;27;20060;-78
2021/05/10 07:04:34;;;;;;;23.88;13.35;;;;;;;;;;5140240;27;20068;-78
2021/05/10 07:07:00;;;;;;;62.95;41.53;;;;;;;;;;5145389;27;20093;-78
2021/05/10 07:09:26;;;;;;;33.97;23.10;;;;;;;;;;5145149;27;20380;-78
2021/05/10 07:11:51;;;;;;;48.65;31.67;;;;;;;;;;5137200;27;20027;-78
2021/05/10 07:14:17;;;;;;;33.22;21.88;;;;;;;;;;5148163;27;20071;-78
2021/05/10 07:16:43;;;;;;;24.70;17.50;;;;;;;;;;5146560;27;20539;-77
2021/05/10 07:19:09;;;;;;;7.38;3.75;;;;;;;;;;5146564;27;20027;-77
2021/05/10 07:21:36;;;;;;;5.68;2.30;;;;;;;;;;5137203;27;20038;-78
2021/05/10 07:24:01;;;;;;;4.47;2.05;;;;;;;;;;5120426;27;20076;-78
2021/05/10 07:26:27;;;;;;;3.17;1.30;;;;;;;;;;5140768;27;20014;-78
2021/05/10 07:28:53;;;;;;;1.75;0.90;;;;;;;;;;5149702;27;20460;-78
2021/05/10 07:31:18;;;;;;;2.72;1.00;;;;;;;;;;5144813;27;20022;-78
2021/05/10 07:33:44;;;;;;;3.15;1.20;;;;;;;;;;5131373;27;20105;-78
2021/05/10 07:36:10;;;;;;;4.07;1.60;;;;;;;;;;5123656;27;20507;-78
2021/05/10 07:38:36;;;;;;;3.92;1.45;;;;;;;;;;5121680;27;20022;-77
2021/05/10 07:41:02;;;;;;;6.05;1.92;;;;;;;;;;5126736;27;20069;-78
2021/05/10 07:43:28;;;;;;;3.95;1.75;;;;;;;;;;5131982;27;20244;-78
2021/05/10 07:45:53;;;;;;;4.10;1.52;;;;;;;;;;5129881;27;20404;-78
2021/05/10 07:48:19;;;;;;;2.58;1.20;;;;;;;;;;5124480;27;20054;-78
2021/05/10 07:50:45;;;;;;;2.17;1.00;;;;;;;;;;5126301;27;20015;-78
2021/05/10 07:53:13;;;;;;;3.85;1.13;;;;;;;;;;5120780;27;20382;-78
2021/05/10 07:55:38;;;;;;;2.58;0.93;;;;;;;;;;5120756;27;20142;-80
2021/05/10 07:58:04;;;;;;;3.05;1.10;;;;;;;;;;5129639;27;20031;-78
2021/05/10 08:00:36;;;;;;;3.85;1.10;;;;;;;;;;5138903;27;20395;-78
2021/05/10 08:03:08;;;;;;;2.15;0.90;;;;;;;;;;5145780;27;20030;-78
2021/05/10 08:05:35;;;;;;;2.72;0.82;;;;;;;;;;5143670;27;20015;-79
2021/05/10 08:08:00;;;;;;;2.25;0.80;;;;;;;;;;5148340;27;20041;-78
2021/05/10 08:10:26;;;;;;;2.15;0.88;;;;;;;;;;5143075;27;20019;-78
2021/05/10 08:12:52;;;;;;;5.45;0.98;;;;;;;;;;5144171;27;20503;-78
2021/05/10 08:15:18;;;;;;;2.15;1.00;;;;;;;;;;5129596;27;20034;-79
2021/05/10 08:17:43;;;;;;;6.25;1.30;;;;;;;;;;5135053;27;20097;-78
2021/05/10 08:20:09;;;;;;;2.10;0.80;;;;;;;;;;5134242;27;20473;-80
2021/05/10 08:22:35;;;;;;;2.58;0.80;;;;;;;;;;5140092;27;20019;-78
2021/05/10 08:25:01;;;;;;;2.92;1.00;;;;;;;;;;5146591;27;20031;-79
2021/05/10 08:27:27;;;;;;;2.92;1.05;;;;;;;;;;5138623;27;20019;-78
2021/05/10 08:29:53;;;;;;;1.58;0.70;;;;;;;;;;5138272;27;20479;-78
2021/05/10 08:32:18;;;;;;;3.30;0.82;;;;;;;;;;5136309;27;20073;-78
2021/05/10 08:34:44;;;;;;;1.55;0.70;;;;;;;;;;5140862;27;19911;-78
2021/05/10 08:37:10;;;;;;;3.17;0.98;;;;;;;;;;5140426;27;20019;-78
2021/05/10 08:39:36;;;;;;;1.77;0.60;;;;;;;;;;5139903;27;20097;-78
2021/05/10 08:42:01;;;;;;;1.83;0.55;;;;;;;;;;5135024;27;20028;-78
2021/05/10 08:44:27;;;;;;;2.40;1.15;;;;;;;;;;5131063;27;20027;-79
2021/05/10 08:46:53;;;;;;;1.63;0.70;;;;;;;;;;5133536;27;20069;-78
2021/05/10 08:49:21;;;;;;;1.80;0.70;;;;;;;;;;5116606;27;20015;-79
2021/05/10 08:51:48;;;;;;;4.53;1.20;;;;;;;;;;5130607;27;20031;-79
2021/05/10 08:54:18;;;;;;;2.00;0.75;;;;;;;;;;5140387;27;20101;-78
2021/05/10 08:56:44;;;;;;;2.20;0.60;;;;;;;;;;5136512;27;20030;-78
2021/05/10 08:59:10;;;;;;;2.10;0.75;;;;;;;;;;5141652;27;20096;-78
2021/05/10 09:01:58;;;;;;;1.48;0.60;;;;;;;;;;5142469;27;20437;-78
2021/05/10 09:04:29;;;;;;;1.85;0.70;;;;;;;;;;5136977;27;20034;-79
2021/05/10 09:07:13;;;;;;;2.83;1.33;;;;;;;;;;5125679;27;20068;-79
2021/05/10 09:09:49;;;;;;;1.38;0.57;;;;;;;;;;5127319;27;20022;-79
2021/05/10 09:12:16;;;;;;;1.65;0.60;;;;;;;;;;5136507;27;20441;-79
2021/05/10 09:14:42;;;;;;;1.58;0.60;;;;;;;;;;5135150;28;20027;-79
2021/05/10 09:17:09;;;;;;;2.30;1.00;;;;;;;;;;5123779;27;20560;-79
2021/05/10 09:19:45;;;;;;;2.08;0.77;;;;;;;;;;5134335;27;20029;-79
2021/05/10 09:22:11;;;;;;;1.95;0.70;;;;;;;;;;5133057;28;20023;-79
2021/05/10 09:24:47;;;;;;;1.80;0.60;;;;;;;;;;5133325;28;20026;-78
2021/05/10 09:27:26;;;;;;;2.28;0.70;;;;;;;;;;5142099;27;20098;-79
2021/05/10 09:30:11;;;;;;;1.85;0.75;;;;;;;;;;5137705;28;20038;-79
2021/05/10 09:32:37;;;;;;;1.60;0.68;;;;;;;;;;5139624;27;20046;-78
2021/05/10 09:35:19;;;;;;;3.53;0.70;;;;;;;;;;5141203;28;20106;-79
2021/05/10 09:37:52;;;;;;;2.05;0.88;;;;;;;;;;5142973;27;20035;-79
2021/05/10 09:40:18;;;;;;;5.88;0.80;;;;;;;;;;5131630;27;20118;-79
2021/05/10 09:42:51;;;;;;;5.90;1.00;;;;;;;;;;5138668;27;20060;-80
2021/05/10 09:45:30;;;;;;;1.55;0.65;;;;;;;;;;5135676;27;20441;-79
2021/05/10 09:48:09;;;;;;;1.63;0.70;;;;;;;;;;5141631;27;20362;-80
2021/05/10 09:50:39;;;;;;;1.50;0.60;;;;;;;;;;5132387;27;20046;-79
2021/05/10 09:53:07;;;;;;;1.60;0.70;;;;;;;;;;5147409;27;20019;-79
2021/05/10 09:55:45;;;;;;;1.40;0.60;;;;;;;;;;5146360;27;20095;-79
2021/05/10 09:58:11;;;;;;;2.63;0.70;;;;;;;;;;5132303;27;20045;-80
2021/05/10 10:00:38;;;;;;;1.52;0.60;;;;;;;;;;5138655;27;20058;-80
2021/05/10 10:03:05;;;;;;;2.25;1.00;;;;;;;;;;5134265;27;20023;-80
2021/05/10 10:05:31;;;;;;;1.30;0.60;;;;;;;;;;5136726;27;20087;-79
2021/05/10 10:07:57;;;;;;;3.08;0.85;;;;;;;;;;5133513;27;20019;-80
2021/05/10 10:10:23;;;;;;;1.77;0.82;;;;;;;;;;5134985;27;20376;-80
2021/05/10 10:12:48;;;;;;;2.03;0.57;;;;;;;;;;5134234;27;20054;-81
2021/05/10 10:15:14;;;;;;;1.80;0.70;;;;;;;;;;5127414;27;20110;-80
2021/05/10 10:17:40;;;;;;;2.78;1.00;;;;;;;;;;5134674;27;20049;-80
2021/05/10 10:20:08;;;;;;;2.13;0.70;;;;;;;;;;5124745;27;20044;-80
2021/05/10 10:22:33;;;;;;;2.42;0.80;;;;;;;;;;5136363;27;20057;-79
2021/05/10 10:25:02;;;;;;;2.42;1.02;;;;;;;;;;5133628;27;20537;-79
2021/05/10 10:27:29;;;;;;;1.70;0.70;;;;;;;;;;5131747;27;20017;-79
2021/05/10 10:29:55;;;;;;;2.42;0.80;;;;;;;;;;5132049;27;20426;-79
2021/05/10 10:32:22;;;;;;;2.33;0.63;;;;;;;;;;5130332;27;20361;-80
2021/05/10 10:34:48;;;;;;;2.33;0.73;;;;;;;;;;5133252;27;20027;-79
2021/05/10 10:37:15;;;;;;;1.92;0.73;;;;;;;;;;5126068;27;20023;-79
2021/05/10 10:39:50;;;;;;;2.70;0.82;;;;;;;;;;5130345;27;20442;-79
2021/05/10 10:42:34;;;;;;;3.53;0.93;;;;;;;;;;5137141;27;20027;-79
2021/05/10 10:45:03;;;;;;;1.52;0.70;;;;;;;;;;5131825;27;20030;-79
2021/05/10 10:47:46;;;;;;;1.65;0.60;;;;;;;;;;5130837;27;20022;-79
2021/05/10 10:50:16;;;;;;;1.25;0.70;;;;;;;;;;5133370;27;20034;-79
2021/05/10 10:53:02;;;;;;;3.78;0.80;;;;;;;;;;5133431;27;20027;-80
2021/05/10 10:55:30;;;;;;;2.40;1.15;;;;;;;;;;5133282;27;20422;-79
2021/05/10 10:58:15;;;;;;;2.75;0.90;;;;;;;;;;5124754;27;20019;-79
2021/05/10 11:01:01;;;;;;;2.08;0.93;;;;;;;;;;5141997;22;20035;-79
2021/05/10 11:03:27;;;;;;;2.92;1.08;;;;;;;;;;5096117;27;20032;-78
2021/05/10 11:05:53;;;;;;;1.70;0.82;;;;;;;;;;5114758;27;20027;-79
2021/05/10 11:08:37;;;;;;;3.63;1.00;;;;;;;;;;5132539;27;20016;-79
2021/05/10 11:11:03;;;;;;;1.88;0.60;;;;;;;;;;5101226;27;20091;-78
2021/05/10 11:13:32;;;;;;;2.33;0.80;;;;;;;;;;5112833;27;20023;-79
2021/05/10 11:16:18;;;;;;;2.10;0.80;;;;;;;;;;5113418;27;20015;-79
2021/05/10 11:18:55;;;;;;;1.20;0.50;;;;;;;;;;5112455;27;20025;-78
2021/05/10 11:21:25;;;;;;;1.63;0.80;;;;;;;;;;5118351;27;20472;-79
2021/05/10 11:24:02;;;;;;;2.00;1.00;;;;;;;;;;5131746;27;20088;-78
2021/05/10 11:26:48;;;;;;;4.53;0.90;;;;;;;;;;5131059;27;20042;-78
2021/05/10 11:29:29;;;;;;;1.83;0.80;;;;;;;;;;5105099;28;20020;-79
2021/05/10 11:31:56;;;;;;;1.90;0.77;;;;;;;;;;5121092;27;20024;-79
2021/05/10 11:34:25;;;;;;;1.25;0.60;;;;;;;;;;5106849;28;20031;-79
2021/05/10 11:36:55;;;;;;;1.88;0.77;;;;;;;;;;5114343;28;20073;-79
2021/05/10 11:39:23;;;;;;;2.17;0.80;;;;;;;;;;5125016;27;20038;-79
2021/05/10 11:41:49;;;;;;;3.10;1.27;;;;;;;;;;5120087;27;20412;-80
2021/05/10 11:44:21;;;;;;;1.92;0.88;;;;;;;;;;5109705;27;20023;-77
2021/05/10 11:46:48;;;;;;;2.90;0.80;;;;;;;;;;5095414;28;20102;-77
2021/05/10 11:49:24;;;;;;;1.77;0.70;;;;;;;;;;5103143;28;20096;-78
2021/05/10 11:51:50;;;;;;;1.35;0.55;;;;;;;;;;5106662;28;20023;-78
2021/05/10 11:54:15;;;;;;;1.80;0.57;;;;;;;;;;5110904;28;20084;-78
2021/05/10 11:56:45;;;;;;;1.42;0.50;;;;;;;;;;5098224;28;20024;-78
2021/05/10 12:01:53;;;;;;;2.78;1.00;;;;;;;;;;5126178;27;20102;-78
2021/05/10 12:04:19;;;;;;;2.20;0.70;;;;;;;;;;5115440;27;20024;-79
2021/05/10 12:06:45;;;;;;;1.90;0.70;;;;;;;;;;5096973;27;20019;-78
2021/05/10 12:09:30;;;;;;;2.25;0.80;;;;;;;;;;5108047;27;20024;-77
2021/05/10 12:11:56;;;;;;;2.00;0.65;;;;;;;;;;5109308;27;20500;-78
2021/05/10 12:14:22;;;;;;;1.98;0.88;;;;;;;;;;5110899;27;20019;-78
2021/05/10 12:17:04;;;;;;;2.42;0.57;;;;;;;;;;5107900;27;20495;-78
2021/05/10 12:19:48;;;;;;;3.20;0.80;;;;;;;;;;5092335;27;20051;-79
2021/05/10 12:22:14;;;;;;;2.40;0.70;;;;;;;;;;5093700;28;20023;-78
2021/05/10 12:24:55;;;;;;;1.63;0.60;;;;;;;;;;5115346;27;20121;-78
2021/05/10 12:27:21;;;;;;;1.80;0.70;;;;;;;;;;5086451;28;20024;-77
2021/05/10 12:29:47;;;;;;;2.03;0.70;;;;;;;;;;5092037;28;20016;-77
2021/05/10 12:32:13;;;;;;;2.03;0.90;;;;;;;;;;5105898;27;20484;-77
2021/05/10 12:34:41;;;;;;;2.33;1.10;;;;;;;;;;5106480;28;20024;-77
2021/05/10 12:37:07;;;;;;;2.03;0.80;;;;;;;;;;5084680;28;20070;-78
2021/05/10 12:39:33;;;;;;;1.65;0.77;;;;;;;;;;5108471;28;20050;-78
2021/05/10 12:42:12;;;;;;;2.03;0.95;;;;;;;;;;5108887;28;20443;-79
2021/05/10 12:44:38;;;;;;;1.70;0.60;;;;;;;;;;5093174;28;20051;-78
2021/05/10 12:47:04;;;;;;;1.85;0.80;;;;;;;;;;5117084;27;20352;-77
2021/05/10 12:49:30;;;;;;;2.55;0.90;;;;;;;;;;5100087;28;20020;-79
2021/05/10 12:51:56;;;;;;;1.73;0.65;;;;;;;;;;5118997;27;20019;-76
2021/05/10 12:56:43;;;;;;;1.92;0.88;;;;;;;;;;5092066;27;20340;-77
2021/05/10 12:59:09;;;;;;;2.20;0.82;;;;;;;;;;5086789;28;20518;-77
2021/05/10 13:01:35;;;;;;;2.75;0.85;;;;;;;;;;5080813;28;20020;-77
2021/05/10 13:04:03;;;;;;;2.25;0.75;;;;;;;;;;5072607;28;20092;-78
2021/05/10 13:06:30;;;;;;;2.35;0.50;;;;;;;;;;5066734;28;20369;-78
2021/05/10 13:08:59;;;;;;;4.10;0.85;;;;;;;;;;5062477;28;20082;-77
2021/05/10 13:11:40;;;;;;;3.13;0.75;;;;;;;;;;5066727;28;20086;-78
2021/05/10 13:14:16;;;;;;;2.47;1.60;;;;;;;;;;5066994;28;20021;-79
2021/05/10 13:31:46;;;;;;;1.73;0.70;;;;;;;;;;5069114;28;20024;-79
2021/05/10 13:33:43;;;;;;;3.00;0.90;;;;;;;;;;5065751;28;20050;-79
2021/05/10 13:36:29;;;;;;;2.92;0.77;;;;;;;;;;5069634;28;20114;-79
2021/05/10 13:41:14;;;;;;;2.13;0.70;;;;;;;;;;5065000;28;20403;-79
2021/05/10 13:46:27;;;;;;;0.60;0.40;;;;;;;;;;5046867;28;20037;-79
2021/05/10 13:48:52;;;;;;;1.85;0.73;;;;;;;;;;5045730;28;20020;-78
2021/05/10 13:51:18;;;;;;;1.50;0.70;;;;;;;;;;5042915;28;20400;-79
2021/05/10 13:53:44;;;;;;;1.52;0.63;;;;;;;;;;5048459;28;20429;-79
2021/05/10 13:56:10;;;;;;;1.60;0.52;;;;;;;;;;5042438;28;20091;-78
2021/05/10 13:58:40;;;;;;;1.70;0.68;;;;;;;;;;5043572;28;20104;-78
2021/05/10 14:01:05;;;;;;;1.67;0.60;;;;;;;;;;5043409;28;20048;-79
2021/05/10 14:03:31;;;;;;;1.33;0.63;;;;;;;;;;5047150;28;20033;-79
2021/05/10 14:05:57;;;;;;;1.75;0.70;;;;;;;;;;5044563;28;20104;-79
2021/05/10 14:08:22;;;;;;;1.17;0.47;;;;;;;;;;5040873;28;20104;-79
2021/05/10 14:10:50;;;;;;;2.20;0.70;;;;;;;;;;5041154;28;20124;-80
2021/05/10 14:13:17;;;;;;;1.48;0.50;;;;;;;;;;5045514;28;20460;-79
2021/05/10 14:15:43;;;;;;;1.42;0.63;;;;;;;;;;5043529;28;20497;-79
2021/05/10 14:18:16;;;;;;;1.55;0.65;;;;;;;;;;5050290;28;20079;-79
2021/05/10 14:23:27;;;;;;;1.77;0.68;;;;;;;;;;5047605;28;20063;-79
2021/05/10 14:25:52;;;;;;;2.20;1.10;;;;;;;;;;5051922;28;20040;-79
2021/05/10 14:28:18;;;;;;;2.38;1.08;;;;;;;;;;5052732;28;20138;-79
2021/05/10 14:30:44;;;;;;;2.63;1.00;;;;;;;;;;5055633;28;20017;-79
2021/05/10 14:33:10;;;;;;;1.60;0.80;;;;;;;;;;5059237;28;20071;-78
2021/05/10 14:35:35;;;;;;;2.92;0.98;;;;;;;;;;5043868;28;20025;-79
2021/05/10 14:38:01;;;;;;;2.28;0.98;;;;;;;;;;5059474;28;20597;-79
2021/05/10 14:40:27;;;;;;;2.45;1.15;;;;;;;;;;5049502;28;20055;-78
2021/05/10 14:42:52;;;;;;;2.00;0.90;;;;;;;;;;5057897;28;20768;-79
2021/05/10 14:45:18;;;;;;;2.65;1.00;;;;;;;;;;5051005;28;20128;-78
2021/05/10 14:47:44;;;;;;;2.20;1.08;;;;;;;;;;5054667;28;20468;-78
2021/05/10 14:50:10;;;;;;;2.70;1.23;;;;;;;;;;5058997;28;20036;-78
2021/05/10 14:52:35;;;;;;;3.17;1.30;;;;;;;;;;5043791;28;20028;-78
2021/05/10 14:55:01;;;;;;;2.15;0.93;;;;;;;;;;5043229;28;20016;-78
2021/05/10 14:57:27;;;;;;;2.25;1.10;;;;;;;;;;5043493;28;20528;-79
2021/05/10 15:02:10;;;;;;;2.50;0.90;;;;;;;;;;5084387;28;20791;-78
2021/05/10 15:04:36;;;;;;;1.80;0.90;;;;;;;;;;5059387;28;20025;-78
2021/05/10 15:07:02;;;;;;;2.53;0.90;;;;;;;;;;5058056;28;20012;-78
2021/05/10 15:09:28;;;;;;;3.20;0.80;;;;;;;;;;5048750;28;20020;-79
2021/05/10 15:11:53;;;;;;;1.90;0.70;;;;;;;;;;5045713;28;20033;-77
2021/05/10 15:14:23;;;;;;;8.02;4.70;;;;;;;;;;5041293;28;20033;-77
2021/05/10 15:16:48;;;;;;;9.20;6.28;;;;;;;;;;5048020;28;20059;-77
2021/05/10 15:19:14;;;;;;;8.27;4.82;;;;;;;;;;5039108;28;20038;-77
2021/05/10 15:21:40;;;;;;;3.90;1.70;;;;;;;;;;5032762;28;20031;-78
2021/05/10 15:24:05;;;;;;;2.78;1.42;;;;;;;;;;5032310;28;20389;-77
2021/05/10 15:26:32;;;;;;;2.65;1.15;;;;;;;;;;5033679;28;20032;-77
2021/05/10 15:28:58;;;;;;;1.73;0.70;;;;;;;;;;5034826;28;20027;-77
2021/05/10 15:31:24;;;;;;;2.90;1.30;;;;;;;;;;5035518;28;20018;-78
2021/05/10 15:33:49;;;;;;;3.08;1.10;;;;;;;;;;5032548;28;20031;-78
2021/05/10 15:36:15;;;;;;;3.35;1.67;;;;;;;;;;5031060;28;20026;-78
2021/05/10 15:38:41;;;;;;;2.97;1.20;;;;;;;;;;5034973;28;19939;-78
2021/05/10 15:41:06;;;;;;;3.40;1.42;;;;;;;;;;5030839;28;20401;-78
2021/05/10 15:43:34;;;;;;;2.72;1.25;;;;;;;;;;5032745;28;20044;-77
2021/05/10 15:46:00;;;;;;;3.92;1.02;;;;;;;;;;5036650;28;20490;-77
2021/05/10 15:48:26;;;;;;;2.38;1.27;;;;;;;;;;5040054;28;20064;-77
2021/05/10 15:50:52;;;;;;;2.30;1.17;;;;;;;;;;5041889;28;20128;-77
2021/05/10 15:53:17;;;;;;;3.20;1.30;;;;;;;;;;5035740;28;20100;-77
2021/05/10 15:55:43;;;;;;;2.75;1.20;;;;;;;;;;5036289;28;20029;-77
2021/05/10 15:58:09;;;;;;;2.95;1.30;;;;;;;;;;5030496;28;20022;-77
2021/05/10 16:00:34;;;;;;;3.97;1.60;;;;;;;;;;5033253;28;20022;-78
2021/05/10 16:03:00;;;;;;;2.00;0.85;;;;;;;;;;5032476;28;20405;-77
2021/05/10 16:05:26;;;;;;;2.38;0.95;;;;;;;;;;5035391;28;20036;-77
2021/05/10 16:07:51;;;;;;;2.20;0.85;;;;;;;;;;5033836;28;20035;-77
2021/05/10 16:10:17;;;;;;;2.95;1.40;;;;;;;;;;5030506;28;20029;-77
2021/05/10 16:12:43;;;;;;;4.25;1.70;;;;;;;;;;5028402;28;20552;-78
2021/05/10 16:15:09;;;;;;;2.53;1.00;;;;;;;;;;5024168;28;20057;-77
2021/05/10 16:17:36;;;;;;;2.40;1.20;;;;;;;;;;5023349;28;20025;-77
2021/05/10 16:20:02;;;;;;;3.28;1.90;;;;;;;;;;5019187;28;20061;-79
2021/05/10 16:22:31;;;;;;;2.60;1.20;;;;;;;;;;5025088;28;20839;-78
2021/05/10 16:24:57;;;;;;;2.17;1.10;;;;;;;;;;5020200;28;20022;-79
2021/05/10 16:27:23;;;;;;;2.30;1.10;;;;;;;;;;5017696;28;20028;-78
2021/05/10 16:29:49;;;;;;;3.30;0.95;;;;;;;;;;5022458;28;20021;-78
2021/05/10 16:32:16;;;;;;;1.65;0.60;;;;;;;;;;5021427;28;20036;-78
2021/05/10 16:34:41;;;;;;;3.03;1.05;;;;;;;;;;5016080;28;20025;-77
2021/05/10 16:37:07;;;;;;;1.77;0.75;;;;;;;;;;5025499;28;20041;-78
2021/05/10 16:39:35;;;;;;;2.20;0.80;;;;;;;;;;5022187;28;20068;-78
2021/05/10 16:42:01;;;;;;;4.25;1.77;;;;;;;;;;5020745;28;20064;-78
2021/05/10 16:44:26;;;;;;;3.92;0.93;;;;;;;;;;5025697;28;20018;-79
2021/05/10 16:46:52;;;;;;;1.73;0.80;;;;;;;;;;5024887;28;20032;-79
2021/05/10 16:49:18;;;;;;;3.08;1.38;;;;;;;;;;5032004;28;20017;-78
2021/05/10 16:51:43;;;;;;;3.33;1.10;;;;;;;;;;5032097;28;20409;-78
2021/05/10 16:54:09;;;;;;;4.07;0.75;;;;;;;;;;5018979;28;20040;-81
2021/05/10 16:56:35;;;;;;;1.83;0.80;;;;;;;;;;5024324;28;20029;-79
2021/05/10 16:59:00;;;;;;;2.17;0.93;;;;;;;;;;5029686;28;20070;-78
2021/05/10 17:01:26;;;;;;;2.20;1.25;;;;;;;;;;5031698;23;20166;-76
2021/05/10 17:03:52;;;;;;;2.50;1.17;;;;;;;;;;5031256;28;20028;-77
2021/05/10 17:06:18;;;;;;;2.50;1.30;;;;;;;;;;5032145;28;20017;-77
2021/05/10 17:08:43;;;;;;;2.83;1.30;;;;;;;;;;5031700;28;20664;-77
2021/05/10 17:11:09;;;;;;;2.10;1.10;;;;;;;;;;5040034;28;20057;-77
2021/05/10 17:13:36;;;;;;;2.63;1.10;;;;;;;;;;5050975;28;20037;-77
2021/05/10 17:16:02;;;;;;;3.63;0.98;;;;;;;;;;5045380;28;20739;-77
2021/05/10 17:18:28;;;;;;;1.98;0.90;;;;;;;;;;5048020;28;20028;-77
2021/05/10 17:20:55;;;;;;;2.05;0.85;;;;;;;;;;5046575;28;20024;-76
2021/05/10 17:23:20;;;;;;;1.38;0.60;;;;;;;;;;5043254;28;20029;-77
2021/05/10 17:25:46;;;;;;;1.80;0.80;;;;;;;;;;5038321;28;20381;-78
2021/05/10 17:28:12;;;;;;;1.75;0.93;;;;;;;;;;5038532;28;20025;-77
2021/05/10 17:30:37;;;;;;;2.63;1.20;;;;;;;;;;5045706;28;20767;-77
2021/05/10 17:33:03;;;;;;;4.95;2.95;;;;;;;;;;5040902;28;20020;-77
2021/05/10 17:35:29;;;;;;;2.90;1.48;;;;;;;;;;5042450;28;20029;-76
2021/05/10 17:37:57;;;;;;;3.30;1.00;;;;;;;;;;5041018;28;20025;-77
2021/05/10 17:40:23;;;;;;;2.90;0.80;;;;;;;;;;5047815;28;20025;-77
2021/05/10 17:42:48;;;;;;;3.80;0.95;;;;;;;;;;5046717;28;20037;-77
2021/05/10 17:45:14;;;;;;;2.45;0.85;;;;;;;;;;5043362;28;20021;-77
2021/05/10 17:47:40;;;;;;;2.53;0.93;;;;;;;;;;5046177;28;20039;-76
2021/05/10 17:50:06;;;;;;;2.63;0.85;;;;;;;;;;5047996;28;20028;-76
2021/05/10 17:52:31;;;;;;;2.33;0.93;;;;;;;;;;5048101;28;20488;-77
2021/05/10 17:54:57;;;;;;;2.30;0.57;;;;;;;;;;5056544;28;20025;-77
2021/05/10 17:57:25;;;;;;;1.52;0.73;;;;;;;;;;5054076;28;20032;-76
2021/05/10 17:59:57;;;;;;;2.03;1.00;;;;;;;;;;5061431;28;20031;-77
2021/05/10 18:05:08;;;;;;;2.03;0.90;;;;;;;;;;5046859;28;20052;-77
2021/05/10 18:07:34;;;;;;;1.67;0.70;;;;;;;;;;5048909;28;20025;-77
2021/05/10 18:09:59;;;;;;;2.50;0.80;;;;;;;;;;5045944;28;20025;-77
2021/05/10 18:12:25;;;;;;;3.42;1.10;;;;;;;;;;5047718;28;20039;-77
2021/05/10 18:14:51;;;;;;;2.25;0.70;;;;;;;;;;5048168;28;20054;-77
2021/05/10 18:17:17;;;;;;;1.83;0.82;;;;;;;;;;5041323;28;20032;-77
2021/05/10 18:19:44;;;;;;;2.35;0.65;;;;;;;;;;5046199;28;20029;-76
2021/05/10 18:22:10;;;;;;;2.10;0.90;;;;;;;;;;5052430;28;20404;-77
2021/05/10 18:24:36;;;;;;;12.75;9.50;;;;;;;;;;5047347;28;20032;-77
2021/05/10 18:27:02;;;;;;;12.65;9.02;;;;;;;;;;5044647;28;20047;-77
2021/05/10 18:31:46;;;;;;;4.28;2.60;;;;;;;;;;5107581;27;20390;-76
2021/05/10 18:34:11;;;;;;;25.83;17.02;;;;;;;;;;5098703;28;20035;-77
2021/05/10 18:39:23;;;;;;;8.55;5.13;;;;;;;;;;5066906;28;20035;-77
2021/05/10 18:41:49;;;;;;;5.50;3.72;;;;;;;;;;5095472;28;20020;-77
2021/05/10 18:44:18;;;;;;;5.05;3.28;;;;;;;;;;5085950;28;20031;-77
2021/05/10 18:46:43;;;;;;;3.17;1.73;;;;;;;;;;5094153;28;20034;-77
2021/05/10 18:49:09;;;;;;;4.35;2.50;;;;;;;;;;5097567;28;20099;-77
2021/05/10 18:51:35;;;;;;;3.22;1.80;;;;;;;;;;5091021;28;20066;-76
2021/05/10 18:54:00;;;;;;;3.10;1.20;;;;;;;;;;5098744;28;20034;-77
2021/05/10 18:56:26;;;;;;;2.45;1.02;;;;;;;;;;5096719;28;20027;-77
2021/05/10 18:58:52;;;;;;;2.92;1.40;;;;;;;;;;5096309;28;20043;-77
2021/05/10 19:01:18;;;;;;;2.60;0.90;;;;;;;;;;5097073;28;20423;-77
2021/05/10 19:03:44;;;;;;;2.30;0.70;;;;;;;;;;5106969;28;20024;-77
2021/05/10 19:06:09;;;;;;;3.85;0.80;;;;;;;;;;5098301;28;20111;-77
2021/05/10 19:08:35;;;;;;;2.35;0.90;;;;;;;;;;5102700;28;20024;-77
2021/05/10 19:11:02;;;;;;;3.33;1.00;;;;;;;;;;5106765;28;20016;-77
2021/05/10 19:13:28;;;;;;;3.25;0.95;;;;;;;;;;5091202;28;20029;-77
2021/05/10 19:15:53;;;;;;;1.38;0.60;;;;;;;;;;5096505;28;20080;-77
2021/05/10 19:18:19;;;;;;;2.00;0.80;;;;;;;;;;5099417;28;20015;-76
2021/05/10 19:20:45;;;;;;;1.75;0.77;;;;;;;;;;5098955;28;20023;-77
2021/05/10 19:23:11;;;;;;;3.38;1.50;;;;;;;;;;5098541;28;20029;-77
2021/05/10 19:25:37;;;;;;;5.18;1.10;;;;;;;;;;5090357;28;20028;-77
2021/05/10 19:28:02;;;;;;;2.10;0.90;;;;;;;;;;5101062;28;20016;-77
2021/05/10 19:30:29;;;;;;;2.88;1.20;;;;;;;;;;5094771;28;20120;-77
2021/05/10 19:32:55;;;;;;;1.83;0.88;;;;;;;;;;5095789;28;20476;-77
2021/05/10 19:35:22;;;;;;;2.38;0.95;;;;;;;;;;5100139;28;20020;-77
2021/05/10 19:37:48;;;;;;;2.42;1.00;;;;;;;;;;5100022;28;20099;-77
2021/05/10 19:40:14;;;;;;;2.47;1.00;;;;;;;;;;5096371;28;20447;-76
2021/05/10 19:42:40;;;;;;;2.20;0.98;;;;;;;;;;5095541;28;20034;-77
2021/05/10 19:45:06;;;;;;;2.20;0.80;;;;;;;;;;5082242;28;20036;-77
2021/05/10 19:56:55;;;;;;;1.67;0.80;;;;;;;;;;5090561;28;20028;-76
2021/05/10 19:59:14;;;;;;;2.88;1.00;;;;;;;;;;5095391;28;20392;-77
2021/05/10 20:01:39;;;;;;;2.30;0.90;;;;;;;;;;5083461;28;20103;-77
2021/05/10 20:04:07;;;;;;;2.00;1.00;;;;;;;;;;5089518;28;20082;-76
2021/05/10 20:06:33;;;;;;;1.65;0.73;;;;;;;;;;5084298;28;20055;-76
2021/05/10 20:08:59;;;;;;;1.92;0.80;;;;;;;;;;5089945;28;20468;-76
2021/05/10 20:11:25;;;;;;;1.50;0.80;;;;;;;;;;5085112;28;20027;-77
2021/05/10 20:13:53;;;;;;;2.72;0.98;;;;;;;;;;5082526;28;20025;-77
2021/05/10 20:16:19;;;;;;;4.13;1.30;;;;;;;;;;5085833;28;20054;-77
2021/05/10 20:18:45;;;;;;;2.30;0.80;;;;;;;;;;5083720;28;20519;-77
2021/05/10 20:23:29;;;;;;;2.92;0.85;;;;;;;;;;5087159;28;20358;-76
2021/05/10 20:25:56;;;;;;;1.98;0.98;;;;;;;;;;5069188;28;20029;-77
2021/05/10 20:28:21;;;;;;;2.38;0.82;;;;;;;;;;5067987;28;20025;-77
2021/05/10 20:30:47;;;;;;;1.65;0.70;;;;;;;;;;5068426;28;20388;-77
2021/05/10 20:33:13;;;;;;;1.63;0.80;;;;;;;;;;5079629;28;20033;-77
2021/05/10 20:35:39;;;;;;;1.50;0.80;;;;;;;;;;5062593;28;20075;-77